Serpuhov, Russia
Current Conditions -  °F | °C
As of 2:00 PM on Sunday 23 Nov 2014 (Local Time) from UUDD Reporting Station
Clear Clear  
Wind Chill: 32°   Ceiling: Unl
Heat Index: 32°   Visibility: 6mi
Dew Point: 21°   Wind: 2mph
Humidity: 64%   Direction: NA
Pressure: 30.48"   Gusts: NA
Location:  54.92°N, 37.41°E
Report Text: UUDD 231100Z VRB01MPS CAVOK M00/M06 Q1032 32290095 82290095NOSIG
Loading
Personal Weather Stations






























Interactive Weather Map New forecast layout! Learn more

10-Day Weather Forecast

Advertisements
Track Severe Weather on mobile